sensor_id;sensor_type;location;lat;lon;timestamp;temperature;humidity
2174;DHT22;1093;51.424;11.764;2024-02-04T00:01:00;9.60;1.40
2174;DHT22;1093;51.424;11.764;2024-02-04T00:03:27;9.60;1.40
2174;DHT22;1093;51.424;11.764;2024-02-04T00:05:54;9.50;1.40
2174;DHT22;1093;51.424;11.764;2024-02-04T00:08:21;9.50;1.40
2174;DHT22;1093;51.424;11.764;2024-02-04T00:10:48;9.50;1.40
2174;DHT22;1093;51.424;11.764;2024-02-04T00:13:14;9.40;1.40
2174;DHT22;1093;51.424;11.764;2024-02-04T00:15:44;9.40;1.40
2174;DHT22;1093;51.424;11.764;2024-02-04T00:18:11;9.40;1.40
2174;DHT22;1093;51.424;11.764;2024-02-04T00:20:38;9.40;1.40
2174;DHT22;1093;51.424;11.764;2024-02-04T00:23:05;9.40;1.40
2174;DHT22;1093;51.424;11.764;2024-02-04T00:25:32;9.50;1.40
2174;DHT22;1093;51.424;11.764;2024-02-04T00:28:00;9.50;1.40
2174;DHT22;1093;51.424;11.764;2024-02-04T00:30:28;9.50;1.40
2174;DHT22;1093;51.424;11.764;2024-02-04T00:33:00;9.50;1.40
2174;DHT22;1093;51.424;11.764;2024-02-04T00:35:30;9.40;1.40
2174;DHT22;1093;51.424;11.764;2024-02-04T00:37:58;9.50;1.40
2174;DHT22;1093;51.424;11.764;2024-02-04T00:40:30;9.50;1.40
2174;DHT22;1093;51.424;11.764;2024-02-04T00:43:21;9.50;1.40
2174;DHT22;1093;51.424;11.764;2024-02-04T00:45:54;9.50;1.40
2174;DHT22;1093;51.424;11.764;2024-02-04T00:48:37;9.50;1.40
2174;DHT22;1093;51.424;11.764;2024-02-04T00:51:19;9.40;1.40
2174;DHT22;1093;51.424;11.764;2024-02-04T00:57:15;9.40;1.40
2174;DHT22;1093;51.424;11.764;2024-02-04T00:59:42;9.40;1.40
2174;DHT22;1093;51.424;11.764;2024-02-04T01:02:09;9.30;1.40
2174;DHT22;1093;51.424;11.764;2024-02-04T01:04:37;9.20;1.40
2174;DHT22;1093;51.424;11.764;2024-02-04T01:07:04;9.20;1.40
2174;DHT22;1093;51.424;11.764;2024-02-04T01:09:31;9.20;1.40
2174;DHT22;1093;51.424;11.764;2024-02-04T01:11:58;9.10;1.40
2174;DHT22;1093;51.424;11.764;2024-02-04T01:14:24;9.10;1.40
2174;DHT22;1093;51.424;11.764;2024-02-04T01:16:51;9.10;1.40
2174;DHT22;1093;51.424;11.764;2024-02-04T01:19:18;9.00;1.40
2174;DHT22;1093;51.424;11.764;2024-02-04T01:21:47;9.00;1.40
2174;DHT22;1093;51.424;11.764;2024-02-04T01:24:13;9.00;1.40
2174;DHT22;1093;51.424;11.764;2024-02-04T01:26:40;9.10;1.40
2174;DHT22;1093;51.424;11.764;2024-02-04T01:29:07;9.10;1.40
2174;DHT22;1093;51.424;11.764;2024-02-04T01:31:34;9.10;1.40
2174;DHT22;1093;51.424;11.764;2024-02-04T01:34:00;9.10;1.40
2174;DHT22;1093;51.424;11.764;2024-02-04T01:36:27;9.00;1.40
2174;DHT22;1093;51.424;11.764;2024-02-04T01:38:56;9.10;1.40
2174;DHT22;1093;51.424;11.764;2024-02-04T01:41:24;9.10;1.40
2174;DHT22;1093;51.424;11.764;2024-02-04T01:43:53;9.00;1.40
2174;DHT22;1093;51.424;11.764;2024-02-04T01:46:20;9.00;1.40
2174;DHT22;1093;51.424;11.764;2024-02-04T01:49:01;9.00;1.40
2174;DHT22;1093;51.424;11.764;2024-02-04T02:32:24;8.80;1.40
2174;DHT22;1093;51.424;11.764;2024-02-04T02:34:54;8.70;1.40
2174;DHT22;1093;51.424;11.764;2024-02-04T02:37:27;8.70;1.40
2174;DHT22;1093;51.424;11.764;2024-02-04T02:39:59;8.60;1.40
2174;DHT22;1093;51.424;11.764;2024-02-04T02:42:28;8.60;1.40
2174;DHT22;1093;51.424;11.764;2024-02-04T02:44:56;8.60;1.40
2174;DHT22;1093;51.424;11.764;2024-02-04T02:47:26;8.60;1.40
2174;DHT22;1093;51.424;11.764;2024-02-04T02:49:54;8.60;1.40
2174;DHT22;1093;51.424;11.764;2024-02-04T02:52:21;8.50;1.40
2174;DHT22;1093;51.424;11.764;2024-02-04T02:54:48;8.50;1.40
2174;DHT22;1093;51.424;11.764;2024-02-04T02:57:15;8.50;1.40
2174;DHT22;1093;51.424;11.764;2024-02-04T02:59:42;8.50;1.40
2174;DHT22;1093;51.424;11.764;2024-02-04T03:02:09;8.50;1.40
2174;DHT22;1093;51.424;11.764;2024-02-04T03:04:38;8.50;1.40
2174;DHT22;1093;51.424;11.764;2024-02-04T03:07:05;8.50;1.40
2174;DHT22;1093;51.424;11.764;2024-02-04T03:09:33;8.50;1.40
2174;DHT22;1093;51.424;11.764;2024-02-04T03:11:59;8.50;1.40
2174;DHT22;1093;51.424;11.764;2024-02-04T03:14:26;8.40;1.40
2174;DHT22;1093;51.424;11.764;2024-02-04T03:16:53;8.40;1.40
2174;DHT22;1093;51.424;11.764;2024-02-04T03:19:22;8.40;1.40
2174;DHT22;1093;51.424;11.764;2024-02-04T03:21:50;8.40;1.40
2174;DHT22;1093;51.424;11.764;2024-02-04T03:24:17;8.40;1.40
2174;DHT22;1093;51.424;11.764;2024-02-04T03:26:44;8.40;1.40
2174;DHT22;1093;51.424;11.764;2024-02-04T03:29:11;8.40;1.40
2174;DHT22;1093;51.424;11.764;2024-02-04T03:31:37;8.40;1.40
2174;DHT22;1093;51.424;11.764;2024-02-04T03:34:04;8.40;1.40
2174;DHT22;1093;51.424;11.764;2024-02-04T03:36:31;8.40;1.40
2174;DHT22;1093;51.424;11.764;2024-02-04T03:38:59;8.40;1.40
2174;DHT22;1093;51.424;11.764;2024-02-04T03:41:26;8.50;1.40
2174;DHT22;1093;51.424;11.764;2024-02-04T03:43:54;8.50;1.40
2174;DHT22;1093;51.424;11.764;2024-02-04T03:46:23;8.50;1.40
2174;DHT22;1093;51.424;11.764;2024-02-04T03:48:50;8.60;1.40
2174;DHT22;1093;51.424;11.764;2024-02-04T03:51:18;8.60;1.40
2174;DHT22;1093;51.424;11.764;2024-02-04T03:53:47;8.60;1.40
2174;DHT22;1093;51.424;11.764;2024-02-04T03:56:19;8.70;1.40
2174;DHT22;1093;51.424;11.764;2024-02-04T03:58:46;8.60;1.40
2174;DHT22;1093;51.424;11.764;2024-02-04T04:01:13;8.70;1.40
2174;DHT22;1093;51.424;11.764;2024-02-04T04:03:40;8.70;1.40
2174;DHT22;1093;51.424;11.764;2024-02-04T04:06:09;8.80;1.40
2174;DHT22;1093;51.424;11.764;2024-02-04T04:08:37;8.80;1.40
2174;DHT22;1093;51.424;11.764;2024-02-04T04:11:04;8.80;1.40
2174;DHT22;1093;51.424;11.764;2024-02-04T04:13:32;8.80;1.40
2174;DHT22;1093;51.424;11.764;2024-02-04T04:16:00;8.80;1.40
2174;DHT22;1093;51.424;11.764;2024-02-04T04:18:28;8.90;1.40
2174;DHT22;1093;51.424;11.764;2024-02-04T04:20:56;8.90;1.40
2174;DHT22;1093;51.424;11.764;2024-02-04T04:23:23;8.90;1.40
2174;DHT22;1093;51.424;11.764;2024-02-04T04:25:53;9.00;1.40
2174;DHT22;1093;51.424;11.764;2024-02-04T04:28:20;8.90;1.40
2174;DHT22;1093;51.424;11.764;2024-02-04T04:30:56;8.90;1.40
2174;DHT22;1093;51.424;11.764;2024-02-04T04:33:23;8.90;1.40
2174;DHT22;1093;51.424;11.764;2024-02-04T04:35:52;8.90;1.40
2174;DHT22;1093;51.424;11.764;2024-02-04T04:38:24;8.80;1.40
2174;DHT22;1093;51.424;11.764;2024-02-04T04:40:51;8.80;1.40
2174;DHT22;1093;51.424;11.764;2024-02-04T04:43:19;8.80;1.40
2174;DHT22;1093;51.424;11.764;2024-02-04T04:45:47;8.80;1.40
2174;DHT22;1093;51.424;11.764;2024-02-04T04:48:14;8.80;1.40
2174;DHT22;1093;51.424;11.764;2024-02-04T04:50:43;8.80;1.40
2174;DHT22;1093;51.424;11.764;2024-02-04T04:53:12;8.80;1.40
2174;DHT22;1093;51.424;11.764;2024-02-04T04:55:39;8.80;1.40
2174;DHT22;1093;51.424;11.764;2024-02-04T04:58:06;8.80;1.40
2174;DHT22;1093;51.424;11.764;2024-02-04T05:00:33;8.80;1.40
2174;DHT22;1093;51.424;11.764;2024-02-04T05:03:02;8.80;1.40
2174;DHT22;1093;51.424;11.764;2024-02-04T05:05:29;8.80;1.40
2174;DHT22;1093;51.424;11.764;2024-02-04T05:07:56;8.80;1.40
2174;DHT22;1093;51.424;11.764;2024-02-04T05:10:23;8.80;1.40
2174;DHT22;1093;51.424;11.764;2024-02-04T05:12:50;8.80;1.40
2174;DHT22;1093;51.424;11.764;2024-02-04T05:15:17;8.80;1.40
2174;DHT22;1093;51.424;11.764;2024-02-04T05:17:45;8.80;1.40
2174;DHT22;1093;51.424;11.764;2024-02-04T05:20:18;8.80;1.40
2174;DHT22;1093;51.424;11.764;2024-02-04T05:22:48;8.80;1.40
2174;DHT22;1093;51.424;11.764;2024-02-04T05:25:17;8.80;1.40
2174;DHT22;1093;51.424;11.764;2024-02-04T05:27:44;8.80;1.40
2174;DHT22;1093;51.424;11.764;2024-02-04T05:30:12;8.80;1.40
2174;DHT22;1093;51.424;11.764;2024-02-04T05:32:41;8.80;1.40
2174;DHT22;1093;51.424;11.764;2024-02-04T05:35:09;8.90;1.40
2174;DHT22;1093;51.424;11.764;2024-02-04T05:37:38;9.00;1.40
2174;DHT22;1093;51.424;11.764;2024-02-04T05:40:06;9.00;1.40
2174;DHT22;1093;51.424;11.764;2024-02-04T05:42:34;9.00;1.40
2174;DHT22;1093;51.424;11.764;2024-02-04T05:45:02;9.10;1.40
2174;DHT22;1093;51.424;11.764;2024-02-04T05:47:30;9.10;1.40
2174;DHT22;1093;51.424;11.764;2024-02-04T05:49:57;9.10;1.40
2174;DHT22;1093;51.424;11.764;2024-02-04T05:52:27;9.20;1.40
2174;DHT22;1093;51.424;11.764;2024-02-04T05:54:56;9.20;1.40
2174;DHT22;1093;51.424;11.764;2024-02-04T05:57:23;9.30;1.40
2174;DHT22;1093;51.424;11.764;2024-02-04T05:59:51;9.30;1.40
2174;DHT22;1093;51.424;11.764;2024-02-04T06:02:18;9.30;1.40
2174;DHT22;1093;51.424;11.764;2024-02-04T06:04:45;9.40;1.40
2174;DHT22;1093;51.424;11.764;2024-02-04T06:07:14;9.40;1.40
2174;DHT22;1093;51.424;11.764;2024-02-04T06:09:40;9.40;1.40
2174;DHT22;1093;51.424;11.764;2024-02-04T06:12:09;9.40;1.40
2174;DHT22;1093;51.424;11.764;2024-02-04T06:14:36;9.40;1.40
2174;DHT22;1093;51.424;11.764;2024-02-04T06:17:05;9.40;1.40
2174;DHT22;1093;51.424;11.764;2024-02-04T06:19:34;9.50;1.40
2174;DHT22;1093;51.424;11.764;2024-02-04T06:22:04;9.40;1.40
2174;DHT22;1093;51.424;11.764;2024-02-04T06:24:36;9.50;1.40
2174;DHT22;1093;51.424;11.764;2024-02-04T06:27:07;9.50;1.40
2174;DHT22;1093;51.424;11.764;2024-02-04T06:29:37;9.50;1.40
2174;DHT22;1093;51.424;11.764;2024-02-04T06:32:06;9.50;1.40
2174;DHT22;1093;51.424;11.764;2024-02-04T06:34:37;9.50;1.40
2174;DHT22;1093;51.424;11.764;2024-02-04T06:37:16;9.50;1.40
2174;DHT22;1093;51.424;11.764;2024-02-04T06:39:42;9.50;1.40
2174;DHT22;1093;51.424;11.764;2024-02-04T06:42:14;9.50;1.40
2174;DHT22;1093;51.424;11.764;2024-02-04T06:44:45;9.50;1.40
2174;DHT22;1093;51.424;11.764;2024-02-04T06:47:14;9.50;1.40
2174;DHT22;1093;51.424;11.764;2024-02-04T06:49:44;9.50;1.40
2174;DHT22;1093;51.424;11.764;2024-02-04T06:52:11;9.50;1.40
2174;DHT22;1093;51.424;11.764;2024-02-04T06:54:38;9.50;1.40
2174;DHT22;1093;51.424;11.764;2024-02-04T06:57:05;9.40;1.40
2174;DHT22;1093;51.424;11.764;2024-02-04T06:59:32;9.40;1.40
2174;DHT22;1093;51.424;11.764;2024-02-04T07:02:03;9.50;1.40
2174;DHT22;1093;51.424;11.764;2024-02-04T07:04:30;9.50;1.40
2174;DHT22;1093;51.424;11.764;2024-02-04T07:06:57;9.50;1.40
2174;DHT22;1093;51.424;11.764;2024-02-04T07:09:24;9.60;1.40
2174;DHT22;1093;51.424;11.764;2024-02-04T07:11:51;9.60;1.40
2174;DHT22;1093;51.424;11.764;2024-02-04T07:14:18;9.60;1.40
2174;DHT22;1093;51.424;11.764;2024-02-04T07:16:45;9.70;1.40
2174;DHT22;1093;51.424;11.764;2024-02-04T07:19:13;9.70;1.40
2174;DHT22;1093;51.424;11.764;2024-02-04T07:21:42;9.70;1.40
2174;DHT22;1093;51.424;11.764;2024-02-04T07:24:09;9.70;1.40
2174;DHT22;1093;51.424;11.764;2024-02-04T07:26:36;9.70;1.40
2174;DHT22;1093;51.424;11.764;2024-02-04T07:29:03;9.70;1.40
2174;DHT22;1093;51.424;11.764;2024-02-04T07:31:30;9.80;1.40
2174;DHT22;1093;51.424;11.764;2024-02-04T07:34:00;9.80;1.40
2174;DHT22;1093;51.424;11.764;2024-02-04T07:36:46;9.80;1.40
2174;DHT22;1093;51.424;11.764;2024-02-04T07:39:16;9.80;1.40
2174;DHT22;1093;51.424;11.764;2024-02-04T07:41:45;9.80;1.40
2174;DHT22;1093;51.424;11.764;2024-02-04T07:44:14;9.80;1.40
2174;DHT22;1093;51.424;11.764;2024-02-04T07:46:45;9.80;1.40
2174;DHT22;1093;51.424;11.764;2024-02-04T07:49:20;9.80;1.40
2174;DHT22;1093;51.424;11.764;2024-02-04T07:51:53;9.80;1.40
2174;DHT22;1093;51.424;11.764;2024-02-04T07:54:56;9.80;1.40
2174;DHT22;1093;51.424;11.764;2024-02-04T07:57:58;9.80;1.40
2174;DHT22;1093;51.424;11.764;2024-02-04T08:00:56;9.80;1.40
2174;DHT22;1093;51.424;11.764;2024-02-04T08:03:45;9.80;1.40
2174;DHT22;1093;51.424;11.764;2024-02-04T08:51:50;9.80;1.40
2174;DHT22;1093;51.424;11.764;2024-02-04T08:54:17;9.80;1.40
2174;DHT22;1093;51.424;11.764;2024-02-04T08:56:44;9.90;1.40
2174;DHT22;1093;51.424;11.764;2024-02-04T08:59:10;9.80;1.40
2174;DHT22;1093;51.424;11.764;2024-02-04T09:01:37;9.80;1.40
2174;DHT22;1093;51.424;11.764;2024-02-04T09:04:04;9.90;1.40
2174;DHT22;1093;51.424;11.764;2024-02-04T09:06:32;9.90;1.40
2174;DHT22;1093;51.424;11.764;2024-02-04T09:09:00;9.90;1.40
2174;DHT22;1093;51.424;11.764;2024-02-04T09:11:27;9.90;1.40
2174;DHT22;1093;51.424;11.764;2024-02-04T09:13:55;9.90;1.40
2174;DHT22;1093;51.424;11.764;2024-02-04T09:16:22;9.90;1.40
2174;DHT22;1093;51.424;11.764;2024-02-04T09:18:49;9.90;1.40
2174;DHT22;1093;51.424;11.764;2024-02-04T09:21:15;9.90;1.40
2174;DHT22;1093;51.424;11.764;2024-02-04T09:23:42;9.90;1.40
2174;DHT22;1093;51.424;11.764;2024-02-04T09:26:10;9.90;1.40
2174;DHT22;1093;51.424;11.764;2024-02-04T09:28:37;9.90;1.40
2174;DHT22;1093;51.424;11.764;2024-02-04T09:31:04;10.00;1.40
2174;DHT22;1093;51.424;11.764;2024-02-04T09:33:31;10.00;1.40
2174;DHT22;1093;51.424;11.764;2024-02-04T09:35:58;10.10;1.40
2174;DHT22;1093;51.424;11.764;2024-02-04T09:38:25;10.10;1.40
2174;DHT22;1093;51.424;11.764;2024-02-04T09:40:51;10.10;1.40
2174;DHT22;1093;51.424;11.764;2024-02-04T09:43:20;10.10;1.40
2174;DHT22;1093;51.424;11.764;2024-02-04T09:45:47;10.10;1.40
2174;DHT22;1093;51.424;11.764;2024-02-04T09:48:16;10.10;1.40
2174;DHT22;1093;51.424;11.764;2024-02-04T09:50:46;10.10;1.40
2174;DHT22;1093;51.424;11.764;2024-02-04T09:53:14;10.10;1.40
2174;DHT22;1093;51.424;11.764;2024-02-04T09:55:42;10.20;1.40
2174;DHT22;1093;51.424;11.764;2024-02-04T09:58:09;10.20;1.40
2174;DHT22;1093;51.424;11.764;2024-02-04T10:00:38;10.30;1.40
2174;DHT22;1093;51.424;11.764;2024-02-04T10:03:10;10.30;1.40
2174;DHT22;1093;51.424;11.764;2024-02-04T10:05:36;10.30;1.40
2174;DHT22;1093;51.424;11.764;2024-02-04T10:08:04;10.30;1.40
2174;DHT22;1093;51.424;11.764;2024-02-04T10:10:31;10.30;1.40
2174;DHT22;1093;51.424;11.764;2024-02-04T10:12:58;10.40;1.40
2174;DHT22;1093;51.424;11.764;2024-02-04T10:15:30;10.40;1.40
2174;DHT22;1093;51.424;11.764;2024-02-04T10:17:58;10.40;1.40
2174;DHT22;1093;51.424;11.764;2024-02-04T10:20:27;10.40;1.40
2174;DHT22;1093;51.424;11.764;2024-02-04T10:22:53;10.40;1.40
2174;DHT22;1093;51.424;11.764;2024-02-04T10:25:20;10.30;1.40
2174;DHT22;1093;51.424;11.764;2024-02-04T10:27:47;10.40;1.40
2174;DHT22;1093;51.424;11.764;2024-02-04T10:30:14;10.40;1.40
2174;DHT22;1093;51.424;11.764;2024-02-04T10:32:41;10.40;1.40
2174;DHT22;1093;51.424;11.764;2024-02-04T10:35:09;10.50;1.40
2174;DHT22;1093;51.424;11.764;2024-02-04T10:37:36;10.50;1.40
2174;DHT22;1093;51.424;11.764;2024-02-04T10:40:04;10.50;1.40
2174;DHT22;1093;51.424;11.764;2024-02-04T10:42:31;10.40;1.40
2174;DHT22;1093;51.424;11.764;2024-02-04T10:44:58;10.50;1.40
2174;DHT22;1093;51.424;11.764;2024-02-04T10:47:34;10.50;1.40
2174;DHT22;1093;51.424;11.764;2024-02-04T10:50:06;10.50;1.40
2174;DHT22;1093;51.424;11.764;2024-02-04T10:52:36;10.50;1.40
2174;DHT22;1093;51.424;11.764;2024-02-04T10:55:07;10.40;1.40
2174;DHT22;1093;51.424;11.764;2024-02-04T10:57:34;10.50;1.40
2174;DHT22;1093;51.424;11.764;2024-02-04T11:00:02;10.50;1.40
2174;DHT22;1093;51.424;11.764;2024-02-04T11:02:35;10.50;1.40
2174;DHT22;1093;51.424;11.764;2024-02-04T11:05:03;10.40;1.40
2174;DHT22;1093;51.424;11.764;2024-02-04T11:07:32;10.40;1.40
2174;DHT22;1093;51.424;11.764;2024-02-04T11:10:00;10.40;1.40
2174;DHT22;1093;51.424;11.764;2024-02-04T11:12:29;10.40;1.40
2174;DHT22;1093;51.424;11.764;2024-02-04T11:15:01;10.40;1.40
2174;DHT22;1093;51.424;11.764;2024-02-04T11:17:42;10.30;1.40
2174;DHT22;1093;51.424;11.764;2024-02-04T11:20:28;10.30;1.40
2174;DHT22;1093;51.424;11.764;2024-02-04T11:23:12;10.30;1.40
2174;DHT22;1093;51.424;11.764;2024-02-04T11:25:47;10.20;1.40
2174;DHT22;1093;51.424;11.764;2024-02-04T11:28:15;10.20;1.40
2174;DHT22;1093;51.424;11.764;2024-02-04T11:30:43;10.20;1.40
2174;DHT22;1093;51.424;11.764;2024-02-04T11:33:18;10.10;1.40
2174;DHT22;1093;51.424;11.764;2024-02-04T11:35:46;10.10;1.40
2174;DHT22;1093;51.424;11.764;2024-02-04T11:38:17;10.20;1.40
2174;DHT22;1093;51.424;11.764;2024-02-04T11:40:47;10.20;1.40
2174;DHT22;1093;51.424;11.764;2024-02-04T11:43:16;10.30;1.40
2174;DHT22;1093;51.424;11.764;2024-02-04T11:45:45;10.30;1.40
2174;DHT22;1093;51.424;11.764;2024-02-04T11:48:12;10.40;1.40
2174;DHT22;1093;51.424;11.764;2024-02-04T11:54:04;10.40;1.40
2174;DHT22;1093;51.424;11.764;2024-02-04T11:56:35;10.50;1.40
2174;DHT22;1093;51.424;11.764;2024-02-04T11:59:02;10.50;1.40
2174;DHT22;1093;51.424;11.764;2024-02-04T12:01:31;10.50;1.40
2174;DHT22;1093;51.424;11.764;2024-02-04T12:04:09;10.50;1.40
2174;DHT22;1093;51.424;11.764;2024-02-04T12:06:40;10.40;1.40
2174;DHT22;1093;51.424;11.764;2024-02-04T12:09:17;10.40;1.40
2174;DHT22;1093;51.424;11.764;2024-02-04T12:11:59;10.40;1.40
2174;DHT22;1093;51.424;11.764;2024-02-04T12:14:27;10.40;1.40
2174;DHT22;1093;51.424;11.764;2024-02-04T12:16:55;10.50;1.40
2174;DHT22;1093;51.424;11.764;2024-02-04T12:19:23;10.50;1.40
2174;DHT22;1093;51.424;11.764;2024-02-04T12:21:50;10.50;1.40
2174;DHT22;1093;51.424;11.764;2024-02-04T12:24:18;10.60;1.40
2174;DHT22;1093;51.424;11.764;2024-02-04T12:26:45;10.60;1.40
2174;DHT22;1093;51.424;11.764;2024-02-04T12:29:14;10.60;1.40
2174;DHT22;1093;51.424;11.764;2024-02-04T12:31:41;10.60;1.40
2174;DHT22;1093;51.424;11.764;2024-02-04T12:34:08;10.70;1.40
2174;DHT22;1093;51.424;11.764;2024-02-04T12:36:37;10.70;1.40
2174;DHT22;1093;51.424;11.764;2024-02-04T12:39:04;10.80;1.40
2174;DHT22;1093;51.424;11.764;2024-02-04T12:41:35;10.70;1.40
2174;DHT22;1093;51.424;11.764;2024-02-04T12:44:01;10.70;1.40
2174;DHT22;1093;51.424;11.764;2024-02-04T12:46:31;10.70;1.40
2174;DHT22;1093;51.424;11.764;2024-02-04T12:48:59;10.70;1.40
2174;DHT22;1093;51.424;11.764;2024-02-04T12:51:26;10.70;1.40
2174;DHT22;1093;51.424;11.764;2024-02-04T12:54:04;10.70;1.40
2174;DHT22;1093;51.424;11.764;2024-02-04T12:56:40;10.70;1.40
2174;DHT22;1093;51.424;11.764;2024-02-04T12:59:08;10.60;1.40
2174;DHT22;1093;51.424;11.764;2024-02-04T13:01:36;10.60;1.40
2174;DHT22;1093;51.424;11.764;2024-02-04T13:04:03;10.50;1.40
2174;DHT22;1093;51.424;11.764;2024-02-04T13:06:31;10.50;1.40
2174;DHT22;1093;51.424;11.764;2024-02-04T13:08:58;10.50;1.40
2174;DHT22;1093;51.424;11.764;2024-02-04T13:11:26;10.50;1.40
2174;DHT22;1093;51.424;11.764;2024-02-04T13:13:52;10.40;1.40
2174;DHT22;1093;51.424;11.764;2024-02-04T13:16:19;10.40;1.40
2174;DHT22;1093;51.424;11.764;2024-02-04T13:18:53;10.40;1.40
2174;DHT22;1093;51.424;11.764;2024-02-04T13:21:19;10.40;1.40
2174;DHT22;1093;51.424;11.764;2024-02-04T13:23:47;10.40;1.40
2174;DHT22;1093;51.424;11.764;2024-02-04T13:26:15;10.40;1.40
2174;DHT22;1093;51.424;11.764;2024-02-04T13:28:42;10.30;1.40
2174;DHT22;1093;51.424;11.764;2024-02-04T13:31:09;10.30;1.40
2174;DHT22;1093;51.424;11.764;2024-02-04T13:33:37;10.30;1.40
2174;DHT22;1093;51.424;11.764;2024-02-04T13:36:06;10.30;1.40
2174;DHT22;1093;51.424;11.764;2024-02-04T13:38:33;10.30;1.40
2174;DHT22;1093;51.424;11.764;2024-02-04T13:41:00;10.30;1.40
2174;DHT22;1093;51.424;11.764;2024-02-04T13:43:27;10.30;1.40
2174;DHT22;1093;51.424;11.764;2024-02-04T13:45:54;10.30;1.40
2174;DHT22;1093;51.424;11.764;2024-02-04T13:48:20;10.30;1.40
2174;DHT22;1093;51.424;11.764;2024-02-04T13:50:50;10.30;1.40
2174;DHT22;1093;51.424;11.764;2024-02-04T13:53:18;10.30;1.40
2174;DHT22;1093;51.424;11.764;2024-02-04T13:55:45;10.30;1.40
2174;DHT22;1093;51.424;11.764;2024-02-04T13:58:12;10.30;1.40
2174;DHT22;1093;51.424;11.764;2024-02-04T14:00:40;10.20;1.40
2174;DHT22;1093;51.424;11.764;2024-02-04T14:03:06;10.20;1.40
2174;DHT22;1093;51.424;11.764;2024-02-04T14:05:33;10.20;1.40
2174;DHT22;1093;51.424;11.764;2024-02-04T14:08:00;10.20;1.40
2174;DHT22;1093;51.424;11.764;2024-02-04T14:10:28;10.20;1.40
2174;DHT22;1093;51.424;11.764;2024-02-04T14:12:55;10.20;1.40
2174;DHT22;1093;51.424;11.764;2024-02-04T14:15:22;10.20;1.40
2174;DHT22;1093;51.424;11.764;2024-02-04T14:17:48;10.20;1.40
2174;DHT22;1093;51.424;11.764;2024-02-04T14:20:15;10.20;1.40
2174;DHT22;1093;51.424;11.764;2024-02-04T14:22:42;10.20;1.40
2174;DHT22;1093;51.424;11.764;2024-02-04T14:25:09;10.20;1.40
2174;DHT22;1093;51.424;11.764;2024-02-04T14:27:39;10.20;1.40
2174;DHT22;1093;51.424;11.764;2024-02-04T14:30:06;10.20;1.40
2174;DHT22;1093;51.424;11.764;2024-02-04T14:32:33;10.20;1.40
2174;DHT22;1093;51.424;11.764;2024-02-04T14:35:00;10.20;1.40
2174;DHT22;1093;51.424;11.764;2024-02-04T14:37:29;10.20;1.40
2174;DHT22;1093;51.424;11.764;2024-02-04T14:39:57;10.20;1.40
2174;DHT22;1093;51.424;11.764;2024-02-04T14:42:25;10.10;1.40
2174;DHT22;1093;51.424;11.764;2024-02-04T14:44:53;10.10;1.40
2174;DHT22;1093;51.424;11.764;2024-02-04T14:47:20;10.10;1.40
2174;DHT22;1093;51.424;11.764;2024-02-04T14:49:47;10.10;1.40
2174;DHT22;1093;51.424;11.764;2024-02-04T14:52:14;10.00;1.40
2174;DHT22;1093;51.424;11.764;2024-02-04T14:54:44;10.00;1.40
2174;DHT22;1093;51.424;11.764;2024-02-04T14:57:11;10.00;1.40
2174;DHT22;1093;51.424;11.764;2024-02-04T14:59:38;10.00;1.40
2174;DHT22;1093;51.424;11.764;2024-02-04T15:02:07;10.00;1.40
2174;DHT22;1093;51.424;11.764;2024-02-04T15:04:34;10.00;1.40
2174;DHT22;1093;51.424;11.764;2024-02-04T15:07:01;10.00;1.40
2174;DHT22;1093;51.424;11.764;2024-02-04T15:09:30;10.00;1.40
2174;DHT22;1093;51.424;11.764;2024-02-04T15:11:58;10.00;1.40
2174;DHT22;1093;51.424;11.764;2024-02-04T15:14:25;10.00;1.40
2174;DHT22;1093;51.424;11.764;2024-02-04T15:16:53;10.00;1.40
2174;DHT22;1093;51.424;11.764;2024-02-04T15:19:24;10.00;1.40
2174;DHT22;1093;51.424;11.764;2024-02-04T15:21:52;10.00;1.40
2174;DHT22;1093;51.424;11.764;2024-02-04T15:24:19;10.00;1.40
2174;DHT22;1093;51.424;11.764;2024-02-04T15:26:48;10.00;1.40
2174;DHT22;1093;51.424;11.764;2024-02-04T15:29:16;10.00;1.40
2174;DHT22;1093;51.424;11.764;2024-02-04T15:31:45;10.00;1.40
2174;DHT22;1093;51.424;11.764;2024-02-04T15:34:15;10.00;1.40
2174;DHT22;1093;51.424;11.764;2024-02-04T15:36:43;9.90;1.40
2174;DHT22;1093;51.424;11.764;2024-02-04T15:39:10;9.90;1.40
2174;DHT22;1093;51.424;11.764;2024-02-04T15:41:37;9.90;1.40
2174;DHT22;1093;51.424;11.764;2024-02-04T15:44:05;9.90;1.40
2174;DHT22;1093;51.424;11.764;2024-02-04T15:46:32;9.80;1.40
2174;DHT22;1093;51.424;11.764;2024-02-04T15:49:01;9.80;1.40
2174;DHT22;1093;51.424;11.764;2024-02-04T15:51:29;9.90;1.40
2174;DHT22;1093;51.424;11.764;2024-02-04T15:53:58;9.90;1.40
2174;DHT22;1093;51.424;11.764;2024-02-04T15:56:32;9.80;1.40
2174;DHT22;1093;51.424;11.764;2024-02-04T15:59:05;9.90;1.40
2174;DHT22;1093;51.424;11.764;2024-02-04T16:01:35;9.90;1.40
2174;DHT22;1093;51.424;11.764;2024-02-04T16:04:03;9.80;1.40
2174;DHT22;1093;51.424;11.764;2024-02-04T16:06:30;9.80;1.40
2174;DHT22;1093;51.424;11.764;2024-02-04T16:08:59;9.70;1.40
2174;DHT22;1093;51.424;11.764;2024-02-04T16:11:26;9.80;1.40
2174;DHT22;1093;51.424;11.764;2024-02-04T16:14:02;9.80;1.40
2174;DHT22;1093;51.424;11.764;2024-02-04T16:16:34;9.70;1.40
2174;DHT22;1093;51.424;11.764;2024-02-04T16:19:03;9.60;1.40
2174;DHT22;1093;51.424;11.764;2024-02-04T16:21:33;9.70;1.40
2174;DHT22;1093;51.424;11.764;2024-02-04T16:24:01;9.60;1.40
2174;DHT22;1093;51.424;11.764;2024-02-04T16:26:28;9.60;1.40
2174;DHT22;1093;51.424;11.764;2024-02-04T16:28:56;9.60;1.40
2174;DHT22;1093;51.424;11.764;2024-02-04T16:31:23;9.60;1.40
2174;DHT22;1093;51.424;11.764;2024-02-04T16:33:50;9.60;1.40
2174;DHT22;1093;51.424;11.764;2024-02-04T16:36:18;9.60;1.40
2174;DHT22;1093;51.424;11.764;2024-02-04T16:38:45;9.60;1.40
2174;DHT22;1093;51.424;11.764;2024-02-04T16:41:14;9.60;1.40
2174;DHT22;1093;51.424;11.764;2024-02-04T16:43:41;9.50;1.40
2174;DHT22;1093;51.424;11.764;2024-02-04T16:46:08;9.60;1.40
2174;DHT22;1093;51.424;11.764;2024-02-04T16:48:35;9.60;1.40
2174;DHT22;1093;51.424;11.764;2024-02-04T16:51:05;9.50;1.40
2174;DHT22;1093;51.424;11.764;2024-02-04T16:53:32;9.50;1.40
2174;DHT22;1093;51.424;11.764;2024-02-04T16:55:59;9.60;1.40
2174;DHT22;1093;51.424;11.764;2024-02-04T16:58:27;9.60;1.40
2174;DHT22;1093;51.424;11.764;2024-02-04T17:00:54;9.60;1.40
2174;DHT22;1093;51.424;11.764;2024-02-04T17:03:21;9.50;1.40
2174;DHT22;1093;51.424;11.764;2024-02-04T17:05:49;9.60;1.40
2174;DHT22;1093;51.424;11.764;2024-02-04T17:08:16;9.60;1.40
2174;DHT22;1093;51.424;11.764;2024-02-04T17:10:43;9.50;1.40
2174;DHT22;1093;51.424;11.764;2024-02-04T17:13:11;9.60;1.40
2174;DHT22;1093;51.424;11.764;2024-02-04T17:15:41;9.60;1.40
2174;DHT22;1093;51.424;11.764;2024-02-04T17:18:24;9.60;1.40
2174;DHT22;1093;51.424;11.764;2024-02-04T17:24:08;9.60;1.40
2174;DHT22;1093;51.424;11.764;2024-02-04T17:33:36;9.60;1.40
2174;DHT22;1093;51.424;11.764;2024-02-04T17:36:25;9.60;1.40
2174;DHT22;1093;51.424;11.764;2024-02-04T17:39:02;9.60;1.40
2174;DHT22;1093;51.424;11.764;2024-02-04T17:42:12;9.60;1.40
2174;DHT22;1093;51.424;11.764;2024-02-04T17:55:00;9.50;1.40
2174;DHT22;1093;51.424;11.764;2024-02-04T17:57:33;9.50;1.40
2174;DHT22;1093;51.424;11.764;2024-02-04T18:00:18;9.50;1.40
2174;DHT22;1093;51.424;11.764;2024-02-04T18:02:57;9.50;1.40
2174;DHT22;1093;51.424;11.764;2024-02-04T18:05:25;9.50;1.40
2174;DHT22;1093;51.424;11.764;2024-02-04T18:08:09;9.40;1.40
2174;DHT22;1093;51.424;11.764;2024-02-04T18:10:53;9.40;1.40
2174;DHT22;1093;51.424;11.764;2024-02-04T18:13:37;9.50;1.40
2174;DHT22;1093;51.424;11.764;2024-02-04T18:16:05;9.40;1.40
2174;DHT22;1093;51.424;11.764;2024-02-04T18:18:32;9.40;1.40